createdAt,value
2023-02-18T00:01:37.140Z,10.95
2023-02-18T00:04:05.001Z,10.96
2023-02-18T00:06:35.234Z,10.95
2023-02-18T00:09:05.046Z,11.00
2023-02-18T00:11:35.559Z,11.00
2023-02-18T00:14:07.624Z,10.99
2023-02-18T00:16:35.407Z,10.99
2023-02-18T00:19:07.006Z,11.00
2023-02-18T00:21:36.007Z,10.99
2023-02-18T00:24:06.230Z,11.00
2023-02-18T00:26:35.538Z,11.04
2023-02-18T00:29:04.124Z,11.03
2023-02-18T00:31:36.121Z,11.02
2023-02-18T00:34:05.500Z,10.98
2023-02-18T00:36:33.946Z,11.04
2023-02-18T00:39:04.963Z,11.02
2023-02-18T00:41:35.233Z,11.02
2023-02-18T00:44:03.148Z,11.05
2023-02-18T00:46:31.040Z,11.06
2023-02-18T00:49:02.252Z,11.05
2023-02-18T00:51:30.288Z,11.06
2023-02-18T00:53:58.924Z,11.04
2023-02-18T00:56:26.722Z,11.05
2023-02-18T00:58:54.416Z,11.05
2023-02-18T01:01:22.382Z,11.05
2023-02-18T01:03:50.339Z,11.03
2023-02-18T01:06:18.147Z,11.07
2023-02-18T01:08:45.875Z,11.03
2023-02-18T01:11:13.889Z,11.03
2023-02-18T01:13:42.268Z,11.02
2023-02-18T01:16:10.874Z,11.04
2023-02-18T01:18:39.747Z,11.06
2023-02-18T01:21:09.436Z,11.07
2023-02-18T01:23:39.342Z,11.08
2023-02-18T01:26:08.523Z,11.06
2023-02-18T01:28:40.832Z,11.03
2023-02-18T01:31:12.297Z,11.02
2023-02-18T01:33:40.845Z,11.03
2023-02-18T01:36:10.705Z,11.03
2023-02-18T01:38:39.294Z,11.01
2023-02-18T01:41:07.365Z,10.99
2023-02-18T01:43:36.430Z,11.00
2023-02-18T01:46:13.722Z,10.96
2023-02-18T01:48:58.955Z,10.93
2023-02-18T01:51:32.554Z,10.93
2023-02-18T01:54:09.209Z,10.92
2023-02-18T01:56:48.008Z,10.96
2023-02-18T01:59:26.987Z,10.94
2023-02-18T02:01:55.615Z,10.94
2023-02-18T02:04:23.643Z,10.94
2023-02-18T02:06:51.431Z,10.91
2023-02-18T02:09:21.611Z,10.88
2023-02-18T02:12:01.228Z,10.87
2023-02-18T02:15:08.145Z,10.87
2023-02-18T02:18:00.525Z,10.87
2023-02-18T02:20:37.177Z,10.84
2023-02-18T02:23:45.274Z,10.87
2023-02-18T02:26:55.703Z,10.86
2023-02-18T02:29:50.930Z,10.85
2023-02-18T02:32:24.948Z,10.84
2023-02-18T02:35:20.243Z,10.85
2023-02-18T02:39:02.067Z,10.85
2023-02-18T02:42:05.267Z,10.83
2023-02-18T02:44:46.186Z,10.82
2023-02-18T02:47:27.859Z,10.84
2023-02-18T02:50:34.926Z,10.84
2023-02-18T02:53:17.898Z,10.84
2023-02-18T02:55:47.236Z,10.81
2023-02-18T02:58:19.842Z,10.83
2023-02-18T03:01:22.663Z,10.83
2023-02-18T03:03:56.164Z,10.83
2023-02-18T03:06:23.877Z,10.81
2023-02-18T03:09:33.248Z,10.78
2023-02-18T03:12:15.553Z,10.79
2023-02-18T03:15:07.981Z,10.78
2023-02-18T03:17:46.603Z,10.79
2023-02-18T03:20:26.029Z,10.78
2023-02-18T03:22:56.194Z,10.74
2023-02-18T03:25:25.634Z,10.78
2023-02-18T03:28:02.113Z,10.78
2023-02-18T03:30:44.196Z,10.77
2023-02-18T03:33:18.537Z,10.75
2023-02-18T03:35:48.661Z,10.74
2023-02-18T03:38:29.053Z,10.73
2023-02-18T03:40:58.217Z,10.74
2023-02-18T03:43:26.338Z,10.75
2023-02-18T03:45:54.617Z,10.75
2023-02-18T03:48:23.122Z,10.71
2023-02-18T03:50:53.163Z,10.72
2023-02-18T03:53:20.828Z,10.73
2023-02-18T03:55:48.483Z,10.73
2023-02-18T03:58:16.320Z,10.72
2023-02-18T04:00:43.974Z,10.73
2023-02-18T04:03:11.635Z,10.72
2023-02-18T04:05:39.302Z,10.73
2023-02-18T04:08:06.916Z,10.71
2023-02-18T04:10:34.573Z,10.71
2023-02-18T04:13:02.421Z,10.68
2023-02-18T04:15:30.431Z,10.70
2023-02-18T04:17:58.135Z,10.72
2023-02-18T04:20:25.737Z,10.69
2023-02-18T04:22:53.447Z,10.70
2023-02-18T04:25:21.369Z,10.68
2023-02-18T04:27:49.037Z,10.66
2023-02-18T04:30:18.877Z,10.63
2023-02-18T04:32:47.237Z,10.64
2023-02-18T04:35:15.237Z,10.59
2023-02-18T04:37:42.946Z,10.54
2023-02-18T04:40:11.680Z,10.44
2023-02-18T04:42:39.342Z,10.46
2023-02-18T04:45:07.669Z,10.48
2023-02-18T04:47:35.301Z,10.39
2023-02-18T04:50:03.488Z,10.42
2023-02-18T04:52:31.147Z,10.38
2023-02-18T04:54:59.534Z,10.35
2023-02-18T04:57:27.164Z,10.30
2023-02-18T04:59:54.860Z,10.28
2023-02-18T05:02:22.527Z,10.26
2023-02-18T05:04:50.324Z,10.28
2023-02-18T05:07:18.004Z,10.27
2023-02-18T05:09:45.786Z,10.24
2023-02-18T05:12:13.499Z,10.24
2023-02-18T05:14:41.296Z,10.22
2023-02-18T05:17:08.952Z,10.24
2023-02-18T05:19:36.601Z,10.23
2023-02-18T05:22:04.240Z,10.23
2023-02-18T05:24:31.967Z,10.22
2023-02-18T05:26:59.596Z,10.19
2023-02-18T05:29:27.318Z,10.20
2023-02-18T05:31:55.167Z,10.20
2023-02-18T05:34:22.941Z,10.19
2023-02-18T05:36:50.592Z,10.16
2023-02-18T05:39:18.191Z,10.19
2023-02-18T05:41:45.860Z,10.16
2023-02-18T05:44:31.889Z,10.17
2023-02-18T05:47:06.654Z,10.16
2023-02-18T05:49:36.205Z,10.10
2023-02-18T05:52:04.685Z,10.14
2023-02-18T05:54:33.501Z,10.14
2023-02-18T05:57:01.519Z,10.14
2023-02-18T05:59:29.562Z,10.18
2023-02-18T06:01:57.680Z,10.16
2023-02-18T06:04:25.415Z,10.18
2023-02-18T06:06:53.081Z,10.14
2023-02-18T06:09:20.757Z,10.17
2023-02-18T06:11:48.467Z,10.14
2023-02-18T06:14:17.050Z,10.11
2023-02-18T06:16:44.884Z,10.10
2023-02-18T06:19:12.722Z,10.11
2023-02-18T06:21:40.450Z,10.14
2023-02-18T06:24:08.206Z,10.10
2023-02-18T06:26:36.015Z,10.10
2023-02-18T06:29:04.251Z,10.09
2023-02-18T06:31:32.030Z,10.07
2023-02-18T06:33:59.788Z,10.07
2023-02-18T06:36:27.462Z,10.07
2023-02-18T06:38:57.472Z,10.07
2023-02-18T06:41:25.579Z,10.04
2023-02-18T06:43:53.244Z,10.07
2023-02-18T06:46:20.933Z,10.06
2023-02-18T06:48:48.779Z,10.07
2023-02-18T06:51:16.608Z,10.04
2023-02-18T06:53:44.379Z,10.03
2023-02-18T06:56:12.645Z,10.04
2023-02-18T06:58:40.623Z,9.98
2023-02-18T07:01:08.441Z,10.01
2023-02-18T07:03:36.200Z,10.03
2023-02-18T07:06:04.237Z,10.01
2023-02-18T07:08:33.220Z,9.98
2023-02-18T07:11:00.915Z,9.99
2023-02-18T07:13:28.546Z,9.93
2023-02-18T07:15:56.417Z,9.89
2023-02-18T07:18:24.116Z,9.95
2023-02-18T07:20:52.069Z,9.92
2023-02-18T07:23:19.657Z,9.91
2023-02-18T07:25:47.336Z,9.92
2023-02-18T07:28:15.008Z,9.89
2023-02-18T07:30:42.695Z,9.89
2023-02-18T07:33:10.337Z,9.86
2023-02-18T07:35:38.001Z,9.85
2023-02-18T07:38:06.068Z,9.83
2023-02-18T07:40:33.788Z,9.85
2023-02-18T07:43:01.498Z,9.84
2023-02-18T07:45:30.187Z,9.87
2023-02-18T07:47:58.277Z,9.89
2023-02-18T07:50:25.896Z,9.95
2023-02-18T07:52:53.556Z,9.98
2023-02-18T07:55:21.248Z,10.03
2023-02-18T07:57:57.563Z,10.06
2023-02-18T08:00:25.322Z,10.09
2023-02-18T08:02:52.980Z,10.13
2023-02-18T08:05:20.786Z,10.13
2023-02-18T08:07:48.537Z,10.18
2023-02-18T08:10:16.166Z,10.21
2023-02-18T08:12:43.878Z,10.22
2023-02-18T08:15:11.571Z,10.25
2023-02-18T08:17:39.404Z,10.20
2023-02-18T08:20:08.230Z,10.24
2023-02-18T08:22:36.106Z,10.28
2023-02-18T08:25:04.671Z,10.32
2023-02-18T08:27:32.457Z,10.36
2023-02-18T08:30:00.107Z,10.38
2023-02-18T08:32:28.930Z,10.39
2023-02-18T08:34:56.709Z,10.39
2023-02-18T08:37:25.125Z,10.43
2023-02-18T08:39:52.736Z,10.43
2023-02-18T08:42:20.578Z,10.43
2023-02-18T08:44:48.218Z,10.46
2023-02-18T08:48:13.739Z,10.47
2023-02-18T08:50:05.623Z,10.48
2023-02-18T08:52:33.344Z,10.49
2023-02-18T08:55:01.124Z,10.54
2023-02-18T08:57:29.344Z,10.55
2023-02-18T08:59:56.973Z,10.53
2023-02-18T09:02:24.762Z,10.56
2023-02-18T09:04:52.406Z,10.63
2023-02-18T09:07:20.199Z,10.65
2023-02-18T09:09:47.806Z,10.66
2023-02-18T09:12:15.618Z,10.67
2023-02-18T09:14:43.332Z,10.65
2023-02-18T09:17:11.112Z,10.70
2023-02-18T09:19:38.748Z,10.71
2023-02-18T09:22:06.499Z,10.74
2023-02-18T09:24:39.290Z,10.74
2023-02-18T09:27:07.196Z,10.77
2023-02-18T09:29:38.368Z,10.79
2023-02-18T09:32:07.525Z,10.79
2023-02-18T09:34:36.564Z,10.77
2023-02-18T09:37:04.343Z,10.79
2023-02-18T09:39:32.003Z,10.84
2023-02-18T09:42:05.362Z,10.83
2023-02-18T09:44:39.338Z,10.92
2023-02-18T09:47:34.810Z,10.98
2023-02-18T09:50:23.907Z,11.02
2023-02-18T09:52:52.550Z,11.02
2023-02-18T09:55:29.211Z,11.08
2023-02-18T09:58:04.549Z,11.08
2023-02-18T10:00:38.260Z,11.12
2023-02-18T10:03:19.756Z,11.11
2023-02-18T10:05:57.909Z,11.13
2023-02-18T10:08:43.573Z,11.13
2023-02-18T10:11:35.744Z,11.13
2023-02-18T10:14:04.996Z,11.14
2023-02-18T10:16:32.823Z,11.18
2023-02-18T10:19:28.309Z,11.17
2023-02-18T10:21:56.942Z,11.19
2023-02-18T10:24:52.890Z,11.22
2023-02-18T10:27:25.609Z,11.24
2023-02-18T10:29:56.266Z,11.24
2023-02-18T10:32:29.105Z,11.24
2023-02-18T10:35:21.685Z,11.29
2023-02-18T10:38:45.219Z,11.27
2023-02-18T10:41:40.176Z,11.30
2023-02-18T10:44:07.816Z,11.35
2023-02-18T10:47:03.940Z,11.39
2023-02-18T10:49:41.837Z,11.39
2023-02-18T10:52:17.343Z,11.41
2023-02-18T10:55:09.528Z,11.42
2023-02-18T10:57:52.209Z,11.38
2023-02-18T11:00:26.821Z,11.44
2023-02-18T11:03:26.191Z,11.46
2023-02-18T11:05:56.841Z,11.48
2023-02-18T11:08:33.285Z,11.50
2023-02-18T11:11:18.385Z,11.56
2023-02-18T11:13:58.165Z,11.62
2023-02-18T11:16:46.371Z,11.66
2023-02-18T11:19:37.599Z,11.70
2023-02-18T11:22:35.012Z,11.72
2023-02-18T11:25:20.145Z,11.71
2023-02-18T11:27:57.907Z,11.70
2023-02-18T11:30:39.845Z,11.69
2023-02-18T11:33:16.470Z,11.68
2023-02-18T11:35:58.834Z,11.71
2023-02-18T11:38:34.487Z,11.75
2023-02-18T11:41:08.281Z,11.76
2023-02-18T11:43:36.839Z,11.76
2023-02-18T11:46:19.952Z,11.81
2023-02-18T11:48:48.497Z,11.80
2023-02-18T11:51:38.904Z,11.80
2023-02-18T11:54:25.131Z,11.81
2023-02-18T11:57:00.875Z,11.79
2023-02-18T11:59:33.630Z,11.77
2023-02-18T12:02:10.564Z,11.74
2023-02-18T12:04:47.218Z,11.77
2023-02-18T12:07:23.692Z,11.78
2023-02-18T12:09:57.235Z,11.79
2023-02-18T12:12:33.585Z,11.80
2023-02-18T12:15:01.569Z,11.79
2023-02-18T12:17:45.804Z,11.86
2023-02-18T12:20:38.287Z,11.95
2023-02-18T12:23:27.861Z,12.02
2023-02-18T12:26:15.788Z,12.01
2023-02-18T12:29:11.246Z,12.06
2023-02-18T12:31:56.701Z,12.05
2023-02-18T12:35:11.745Z,12.04
2023-02-18T12:37:59.663Z,12.12
2023-02-18T12:41:00.669Z,12.06
2023-02-18T12:43:58.726Z,12.10
2023-02-18T12:46:55.520Z,12.20
2023-02-18T12:49:52.087Z,12.21
2023-02-18T12:52:44.264Z,12.25
2023-02-18T12:55:28.249Z,12.34
2023-02-18T12:58:32.509Z,12.42
2023-02-18T13:01:27.457Z,12.42
2023-02-18T13:04:19.255Z,12.48
2023-02-18T13:07:33.094Z,12.55
2023-02-18T13:10:34.919Z,12.58
2023-02-18T13:13:33.223Z,12.50
2023-02-18T13:16:12.262Z,12.45
2023-02-18T13:19:17.134Z,12.46
2023-02-18T13:21:46.703Z,12.43
2023-02-18T13:24:35.393Z,12.54
2023-02-18T13:27:17.571Z,12.63
2023-02-18T13:30:20.449Z,12.65
2023-02-18T13:33:52.445Z,12.68
2023-02-18T13:37:12.612Z,12.64
2023-02-18T13:39:55.500Z,12.61
2023-02-18T13:42:35.732Z,12.56
2023-02-18T13:45:24.429Z,12.37
2023-02-18T13:47:53.925Z,12.29
2023-02-18T13:50:25.725Z,12.38
2023-02-18T13:53:08.572Z,12.49
2023-02-18T13:56:23.407Z,12.45
2023-02-18T13:59:17.989Z,12.51
2023-02-18T14:01:49.255Z,12.52
2023-02-18T14:04:44.149Z,12.37
2023-02-18T14:07:44.521Z,12.28
2023-02-18T14:10:20.605Z,12.34
2023-02-18T14:12:57.579Z,12.35
2023-02-18T14:15:25.250Z,12.27
2023-02-18T14:18:14.032Z,12.31
2023-02-18T14:20:41.587Z,12.26
2023-02-18T14:23:21.462Z,11.95
2023-02-18T14:26:26.543Z,12.03
2023-02-18T14:29:27.918Z,12.07
2023-02-18T14:32:11.145Z,12.07
2023-02-18T14:35:09.357Z,12.08
2023-02-18T14:38:15.073Z,12.01
2023-02-18T14:40:57.622Z,12.00
2023-02-18T14:43:40.124Z,11.95
2023-02-18T14:46:30.651Z,11.98
2023-02-18T14:49:07.023Z,11.96
2023-02-18T14:51:35.912Z,11.95
2023-02-18T14:54:07.877Z,11.91
2023-02-18T14:56:53.165Z,11.90
2023-02-18T14:59:22.572Z,11.80
2023-02-18T15:01:54.483Z,11.86
2023-02-18T15:04:25.071Z,11.87
2023-02-18T15:07:03.787Z,11.93
2023-02-18T15:09:32.055Z,11.90
2023-02-18T15:12:09.589Z,11.88
2023-02-18T15:14:39.971Z,11.94
2023-02-18T15:17:21.068Z,11.92
2023-02-18T15:19:58.979Z,11.86
2023-02-18T15:22:31.212Z,11.97
2023-02-18T15:24:58.940Z,11.93
2023-02-18T15:27:33.165Z,11.94
2023-02-18T15:30:29.741Z,11.88
2023-02-18T15:32:59.747Z,11.85
2023-02-18T15:35:33.018Z,11.85
2023-02-18T15:38:01.861Z,11.75
2023-02-18T15:40:37.723Z,11.74
2023-02-18T15:43:06.944Z,11.65
2023-02-18T15:45:42.393Z,11.69
2023-02-18T15:48:27.815Z,11.71
2023-02-18T15:51:02.753Z,11.70
2023-02-18T15:53:41.509Z,11.65
2023-02-18T15:56:24.383Z,11.69
2023-02-18T15:59:26.928Z,11.60
2023-02-18T16:02:06.476Z,11.67
2023-02-18T16:04:41.495Z,11.65
2023-02-18T16:07:31.952Z,11.67
2023-02-18T16:10:36.868Z,11.68
2023-02-18T16:13:06.101Z,11.50
2023-02-18T16:15:40.521Z,11.47
2023-02-18T16:18:35.214Z,11.54
2023-02-18T16:21:26.313Z,11.59
2023-02-18T16:24:00.586Z,11.58
2023-02-18T16:26:40.123Z,11.58
2023-02-18T16:29:41.980Z,11.55
2023-02-18T16:32:10.034Z,11.51
2023-02-18T16:34:38.194Z,11.47
2023-02-18T16:37:24.697Z,11.44
2023-02-18T16:39:55.100Z,11.45
2023-02-18T16:42:22.776Z,11.38
2023-02-18T16:44:51.895Z,11.42
2023-02-18T16:47:20.615Z,11.44
2023-02-18T16:49:50.968Z,11.42
2023-02-18T16:52:19.938Z,11.43
2023-02-18T16:54:50.187Z,11.41
2023-02-18T16:57:18.418Z,11.41
2023-02-18T16:59:46.104Z,11.42
2023-02-18T17:02:21.540Z,11.42
2023-02-18T17:04:49.182Z,11.39
2023-02-18T17:07:16.994Z,11.41
2023-02-18T17:09:44.620Z,11.41
2023-02-18T17:12:13.404Z,11.39
2023-02-18T17:14:41.603Z,11.37
2023-02-18T17:17:13.958Z,11.32
2023-02-18T17:19:42.133Z,11.34
2023-02-18T17:22:14.655Z,11.34
2023-02-18T17:24:42.424Z,11.29
2023-02-18T17:27:11.126Z,11.26
2023-02-18T17:29:38.756Z,11.24
2023-02-18T17:32:08.509Z,11.18
2023-02-18T17:34:38.193Z,11.19
2023-02-18T17:37:05.897Z,11.19
2023-02-18T17:39:33.541Z,11.22
2023-02-18T17:42:01.222Z,11.23
2023-02-18T17:44:30.490Z,11.17
2023-02-18T17:46:58.213Z,11.13
2023-02-18T17:49:25.898Z,11.07
2023-02-18T17:51:53.665Z,11.09
2023-02-18T17:54:24.676Z,11.11
2023-02-18T17:56:53.407Z,11.12
2023-02-18T17:59:21.543Z,11.11
2023-02-18T18:01:49.205Z,11.10
2023-02-18T18:04:19.168Z,11.13
2023-02-18T18:06:47.357Z,11.13
2023-02-18T18:09:14.982Z,11.12
2023-02-18T18:11:42.805Z,11.07
2023-02-18T18:14:14.993Z,11.10
2023-02-18T18:16:42.773Z,11.07
2023-02-18T18:19:10.423Z,11.08
2023-02-18T18:21:38.798Z,11.08
2023-02-18T18:24:06.882Z,11.10
2023-02-18T18:26:34.512Z,11.12
2023-02-18T18:29:02.648Z,11.12
2023-02-18T18:31:32.223Z,11.11
2023-02-18T18:34:00.010Z,11.13
2023-02-18T18:36:27.666Z,11.09
2023-02-18T18:38:55.391Z,11.11
2023-02-18T18:41:23.200Z,11.14
2023-02-18T18:43:51.062Z,11.12
2023-02-18T18:46:18.814Z,11.11
2023-02-18T18:48:46.930Z,11.07
2023-02-18T18:51:28.239Z,11.10
2023-02-18T18:53:56.000Z,11.10
2023-02-18T18:56:23.696Z,11.08
2023-02-18T18:58:51.682Z,11.06
2023-02-18T19:01:27.662Z,11.05
2023-02-18T19:03:55.749Z,11.05
2023-02-18T19:06:23.536Z,11.06
2023-02-18T19:08:51.353Z,11.07
2023-02-18T19:11:19.050Z,11.05
2023-02-18T19:13:46.882Z,11.03
2023-02-18T19:16:27.998Z,11.03
2023-02-18T19:18:55.658Z,11.04
2023-02-18T19:21:23.294Z,11.04
2023-02-18T19:23:51.013Z,11.01
2023-02-18T19:26:18.720Z,11.01
2023-02-18T19:28:46.814Z,11.01
2023-02-18T19:31:15.090Z,10.95
2023-02-18T19:33:45.696Z,10.98
2023-02-18T19:36:14.759Z,10.94
2023-02-18T19:38:42.703Z,10.93
2023-02-18T19:41:14.135Z,10.96
2023-02-18T19:43:42.957Z,10.92
2023-02-18T19:46:14.019Z,10.98
2023-02-18T19:48:42.889Z,10.98
2023-02-18T19:51:10.982Z,10.91
2023-02-18T19:53:39.398Z,10.87
2023-02-18T19:56:07.876Z,10.90
2023-02-18T19:58:36.535Z,10.91
2023-02-18T20:01:04.508Z,10.86
2023-02-18T20:03:32.240Z,10.90
2023-02-18T20:05:59.853Z,10.92
2023-02-18T20:08:27.746Z,10.92
2023-02-18T20:10:59.621Z,10.88
2023-02-18T20:13:27.654Z,10.90
2023-02-18T20:15:55.300Z,10.83
2023-02-18T20:18:23.225Z,10.84
2023-02-18T20:20:51.519Z,10.85
2023-02-18T20:23:20.418Z,10.84
2023-02-18T20:25:48.099Z,10.83
2023-02-18T20:28:16.385Z,10.88
2023-02-18T20:30:44.316Z,10.81
2023-02-18T20:33:12.045Z,10.85
2023-02-18T20:35:40.300Z,10.83
2023-02-18T20:38:07.918Z,10.87
2023-02-18T20:40:35.671Z,10.87
2023-02-18T20:43:03.914Z,10.85
2023-02-18T20:45:32.685Z,10.81
2023-02-18T20:48:00.326Z,10.82
2023-02-18T20:50:27.978Z,10.84
2023-02-18T20:52:55.628Z,10.78
2023-02-18T20:55:24.099Z,10.84
2023-02-18T20:57:51.739Z,10.83
2023-02-18T21:00:19.480Z,10.87
2023-02-18T21:02:47.235Z,10.84
2023-02-18T21:05:14.981Z,10.81
2023-02-18T21:07:42.609Z,10.86
2023-02-18T21:10:10.319Z,10.84
2023-02-18T21:12:37.938Z,10.86
2023-02-18T21:15:05.916Z,10.82
2023-02-18T21:17:33.543Z,10.86
2023-02-18T21:20:01.383Z,10.86
2023-02-18T21:22:29.044Z,10.85
2023-02-18T21:24:56.900Z,10.86
2023-02-18T21:27:24.551Z,10.87
2023-02-18T21:29:52.460Z,10.89
2023-02-18T21:32:20.176Z,10.84
2023-02-18T21:34:47.928Z,10.82
2023-02-18T21:37:15.530Z,10.83
2023-02-18T21:39:43.193Z,10.82
2023-02-18T21:42:10.898Z,10.81
2023-02-18T21:44:42.913Z,10.79
2023-02-18T21:47:12.120Z,10.81
2023-02-18T21:49:39.789Z,10.77
2023-02-18T21:52:10.397Z,10.76
2023-02-18T21:54:46.899Z,10.73
2023-02-18T21:57:18.966Z,10.77
2023-02-18T21:59:46.743Z,10.75
2023-02-18T22:02:26.342Z,10.76
2023-02-18T22:04:54.415Z,10.72
2023-02-18T22:07:26.282Z,10.68
2023-02-18T22:09:54.380Z,10.68
2023-02-18T22:12:24.408Z,10.71
2023-02-18T22:14:52.820Z,10.68
2023-02-18T22:17:21.649Z,10.66
2023-02-18T22:19:49.361Z,10.70
2023-02-18T22:22:17.653Z,10.68
2023-02-18T22:24:45.306Z,10.71
2023-02-18T22:27:13.103Z,10.70
2023-02-18T22:29:40.895Z,10.69
2023-02-18T22:32:08.657Z,10.67
2023-02-18T22:34:36.366Z,10.63
2023-02-18T22:37:04.104Z,10.56
2023-02-18T22:39:31.976Z,10.59
2023-02-18T22:41:59.732Z,10.58
2023-02-18T22:44:27.639Z,10.63
2023-02-18T22:46:57.619Z,10.58
2023-02-18T22:49:26.045Z,10.62
2023-02-18T22:51:54.957Z,10.55
2023-02-18T22:54:22.890Z,10.59
2023-02-18T22:56:50.636Z,10.61
2023-02-18T22:59:19.450Z,10.62
2023-02-18T23:01:49.416Z,10.57
2023-02-18T23:04:19.537Z,10.59
2023-02-18T23:06:48.775Z,10.53
2023-02-18T23:09:23.509Z,10.43
2023-02-18T23:11:58.103Z,10.52
2023-02-18T23:14:28.397Z,10.51
2023-02-18T23:17:14.640Z,10.52
2023-02-18T23:19:51.228Z,10.57
2023-02-18T23:22:28.581Z,10.57
2023-02-18T23:24:57.146Z,10.57
2023-02-18T23:27:25.684Z,10.56
2023-02-18T23:29:53.984Z,10.58
2023-02-18T23:32:21.948Z,10.55
2023-02-18T23:34:51.169Z,10.52
2023-02-18T23:37:39.111Z,10.54
2023-02-18T23:40:07.931Z,10.52
2023-02-18T23:42:35.688Z,10.50
2023-02-18T23:45:03.603Z,10.54
2023-02-18T23:47:31.306Z,10.49
2023-02-18T23:49:59.052Z,10.53
2023-02-18T23:52:26.769Z,10.50
2023-02-18T23:54:54.575Z,10.49
2023-02-18T23:57:22.252Z,10.46
2023-02-18T23:59:50.444Z,10.44
